Time;durP1;ratioP1;P1;durP2;ratioP2;P2;SDS_P1;SDS_P2;PMS_P1;PMS_P2;Temp;Humidity;BMP_temperature;BMP_pressure;BME280_temperature;BME280_humidity;BME280_pressure;Samples;Min_cycle;Max_cycle;Signal;HPM_P1;HPM_P2
2022/11/03 00:01:11;;;;;;;10.05;2.13;;;10.70;99.90;;;;;;4980634;28;20042;-78
2022/11/03 00:03:37;;;;;;;13.35;3.20;;;10.60;99.90;;;;;;4957032;28;20246;-78
2022/11/03 00:06:06;;;;;;;9.60;2.22;;;10.60;99.90;;;;;;4947042;28;20465;-77
2022/11/03 00:08:40;;;;;;;16.85;2.95;;;10.60;99.90;;;;;;4965147;28;20034;-78
2022/11/03 00:11:11;;;;;;;8.80;2.72;;;10.60;99.90;;;;;;4981207;28;20618;-78
2022/11/03 00:13:38;;;;;;;11.85;2.13;;;10.60;99.90;;;;;;4951852;28;20065;-78
2022/11/03 00:16:05;;;;;;;9.68;2.65;;;10.60;99.90;;;;;;4960035;28;20396;-78
2022/11/03 00:18:31;;;;;;;10.85;2.58;;;10.50;99.90;;;;;;4952349;28;20397;-78
2022/11/03 00:21:05;;;;;;;9.73;2.53;;;10.40;99.90;;;;;;4988942;28;20038;-78
2022/11/03 00:23:34;;;;;;;10.05;2.42;;;10.50;99.90;;;;;;4956268;29;20043;-78
2022/11/03 00:26:24;;;;;;;11.32;2.80;;;10.40;99.90;;;;;;4948089;29;20090;-78
2022/11/03 00:28:52;;;;;;;9.65;2.40;;;10.40;99.90;;;;;;4946548;28;20062;-78
2022/11/03 00:31:20;;;;;;;11.20;3.22;;;10.40;99.90;;;;;;4997016;28;20053;-78
2022/11/03 00:33:46;;;;;;;10.35;2.45;;;10.40;99.90;;;;;;4982673;28;20038;-78
2022/11/03 00:36:21;;;;;;;9.25;2.78;;;10.40;99.90;;;;;;4976655;28;20145;-78
2022/11/03 00:38:47;;;;;;;11.90;2.60;;;10.40;99.90;;;;;;4986194;28;20038;-78
2022/11/03 00:41:13;;;;;;;8.27;2.50;;;10.30;99.90;;;;;;4998745;28;20027;-78
2022/11/03 00:43:40;;;;;;;13.02;2.70;;;10.30;99.90;;;;;;4992381;28;20045;-78
2022/11/03 00:46:07;;;;;;;11.38;2.65;;;10.30;99.90;;;;;;4966936;28;20125;-78
2022/11/03 00:48:34;;;;;;;8.73;2.58;;;10.30;99.90;;;;;;4970754;28;20082;-78
2022/11/03 00:51:15;;;;;;;8.13;2.08;;;10.20;99.90;;;;;;4996568;28;20082;-78
2022/11/03 00:53:45;;;;;;;8.02;2.40;;;10.20;99.90;;;;;;4967722;28;20034;-78
2022/11/03 00:56:22;;;;;;;11.00;2.90;;;10.20;99.90;;;;;;4991472;28;20396;-78
2022/11/03 00:58:49;;;;;;;7.78;2.28;;;10.20;99.90;;;;;;4969088;28;20121;-78
2022/11/03 01:01:17;;;;;;;9.85;2.60;;;10.20;99.90;;;;;;4972451;28;20036;-78
2022/11/03 01:06:48;;;;;;;8.88;2.10;;;10.20;99.90;;;;;;4975091;28;20485;-78
2022/11/03 01:06:51;;;;;;;9.95;2.92;;;10.10;99.90;;;;;;4990788;28;20050;-77
2022/11/03 01:09:20;;;;;;;8.10;2.03;;;10.10;99.90;;;;;;4982549;28;20074;-78
2022/11/03 01:11:58;;;;;;;8.93;2.60;;;10.10;99.90;;;;;;4974724;28;20554;-78
2022/11/03 01:14:26;;;;;;;13.57;2.60;;;10.10;99.90;;;;;;4990981;28;20034;-78
2022/11/03 01:16:52;;;;;;;10.93;3.03;;;10.00;99.90;;;;;;4991063;28;20469;-78
2022/11/03 01:19:19;;;;;;;9.18;2.72;;;10.00;99.90;;;;;;4976674;28;20126;-78
2022/11/03 01:21:44;;;;;;;10.95;2.53;;;10.00;99.90;;;;;;4982924;28;20039;-78
2022/11/03 01:24:10;;;;;;;7.85;2.50;;;10.00;99.90;;;;;;4969915;28;20041;-78
2022/11/03 01:26:36;;;;;;;11.88;2.50;;;10.00;99.90;;;;;;4964875;28;20038;-78
2022/11/03 01:29:01;;;;;;;7.97;2.63;;;10.10;99.90;;;;;;4994938;28;20035;-78
2022/11/03 01:31:28;;;;;;;10.98;2.90;;;10.00;99.90;;;;;;4966521;28;20042;-78
2022/11/03 01:33:55;;;;;;;10.10;2.78;;;10.10;99.90;;;;;;4974814;28;20038;-78
2022/11/03 01:36:21;;;;;;;10.32;2.83;;;10.10;99.90;;;;;;4965954;28;20031;-78
2022/11/03 01:38:47;;;;;;;9.45;2.25;;;10.00;99.90;;;;;;4981761;28;20431;-78
2022/11/03 01:41:19;;;;;;;11.52;2.60;;;10.00;99.90;;;;;;4963825;28;20051;-78
2022/11/03 01:43:51;;;;;;;12.48;3.78;;;10.00;99.90;;;;;;4974835;28;20072;-78
2022/11/03 01:46:24;;;;;;;12.27;2.58;;;9.90;99.90;;;;;;4982468;28;20891;-78
2022/11/03 01:49:13;;;;;;;8.93;2.75;;;9.90;99.90;;;;;;4962213;28;20035;-78
2022/11/03 01:51:42;;;;;;;12.95;3.45;;;9.90;99.90;;;;;;4957441;28;20169;-78
2022/11/03 01:54:10;;;;;;;9.73;3.17;;;9.90;99.90;;;;;;4990420;28;20121;-78
2022/11/03 01:56:41;;;;;;;8.32;2.40;;;9.80;99.90;;;;;;4979756;28;20050;-78
2022/11/03 01:59:08;;;;;;;12.00;3.13;;;9.80;99.90;;;;;;4983352;28;20049;-78
2022/11/03 02:01:35;;;;;;;9.90;2.63;;;9.80;99.90;;;;;;4984646;28;20030;-78
2022/11/03 02:04:07;;;;;;;11.27;2.92;;;9.80;99.90;;;;;;4993354;28;20039;-78
2022/11/03 02:06:35;;;;;;;11.77;3.53;;;9.80;99.90;;;;;;4980083;28;20030;-78
2022/11/03 02:09:06;;;;;;;10.02;2.80;;;9.80;99.90;;;;;;4980123;28;20120;-78
2022/11/03 02:14:17;;;;;;;12.40;3.10;;;9.80;99.90;;;;;;4982875;28;20053;-78
2022/11/03 02:16:55;;;;;;;7.63;2.58;;;9.80;99.90;;;;;;4996637;28;20035;-78
2022/11/03 02:19:35;;;;;;;8.65;2.70;;;9.80;99.90;;;;;;5000188;28;20035;-78
2022/11/03 02:22:27;;;;;;;11.80;2.85;;;9.80;99.90;;;;;;4977404;28;20154;-78
2022/11/03 02:25:17;;;;;;;10.77;3.00;;;9.80;99.90;;;;;;4993811;28;20046;-78
2022/11/03 02:27:43;;;;;;;10.75;2.85;;;9.80;99.90;;;;;;4973297;28;20073;-78
2022/11/03 02:30:09;;;;;;;11.32;2.80;;;9.80;99.90;;;;;;4997650;28;20437;-78
2022/11/03 02:32:47;;;;;;;8.85;2.65;;;9.80;99.90;;;;;;5002844;28;20041;-78
2022/11/03 02:35:39;;;;;;;10.68;2.50;;;9.80;99.90;;;;;;4977315;28;20038;-78
2022/11/03 02:38:10;;;;;;;10.95;2.60;;;9.80;99.90;;;;;;4977050;28;20559;-78
2022/11/03 02:40:41;;;;;;;10.05;2.95;;;9.80;99.90;;;;;;4985871;28;20046;-78
2022/11/03 02:43:08;;;;;;;10.57;2.20;;;9.80;99.90;;;;;;4990953;28;20487;-78
2022/11/03 02:45:34;;;;;;;8.88;2.45;;;9.90;99.90;;;;;;4981554;28;20062;-78
2022/11/03 02:48:01;;;;;;;8.15;2.45;;;9.90;99.90;;;;;;4989530;28;20047;-78
2022/11/03 02:50:33;;;;;;;9.63;2.38;;;9.90;99.90;;;;;;4981152;28;20043;-78
2022/11/03 02:52:59;;;;;;;9.32;3.13;;;9.90;99.90;;;;;;4985342;28;20486;-78
2022/11/03 02:55:45;;;;;;;8.18;2.78;;;9.90;99.90;;;;;;4969883;28;20038;-78
2022/11/03 02:58:18;;;;;;;9.27;2.55;;;9.90;99.90;;;;;;4982575;28;20031;-78
2022/11/03 03:01:00;;;;;;;;;;;9.90;99.90;;;;;;5000921;28;20035;-78
2022/11/03 03:03:31;;;;;;;8.98;2.60;;;9.90;99.90;;;;;;4985115;28;19968;-78
2022/11/03 03:06:02;;;;;;;9.93;2.80;;;9.90;99.90;;;;;;4992980;28;20035;-78
2022/11/03 03:08:29;;;;;;;9.30;2.63;;;9.90;99.90;;;;;;4987536;28;20049;-78
2022/11/03 03:10:59;;;;;;;10.75;2.63;;;9.90;99.90;;;;;;5004895;28;20045;-78
2022/11/03 03:13:25;;;;;;;9.25;3.00;;;9.90;99.90;;;;;;4991682;28;20046;-78
2022/11/03 03:16:10;;;;;;;10.68;2.90;;;9.90;99.90;;;;;;4976636;28;20396;-78
2022/11/03 03:18:49;;;;;;;10.32;2.55;;;9.90;99.90;;;;;;4982958;28;20033;-78
2022/11/03 03:21:24;;;;;;;10.30;2.65;;;9.90;99.90;;;;;;4992808;28;20373;-78
2022/11/03 03:24:06;;;;;;;8.98;2.28;;;9.90;99.90;;;;;;4992546;28;20042;-78
2022/11/03 03:26:35;;;;;;;8.88;2.47;;;9.90;99.90;;;;;;4992420;28;20042;-78
2022/11/03 03:29:13;;;;;;;11.65;2.55;;;9.90;99.90;;;;;;4982463;28;20432;-78
2022/11/03 03:31:42;;;;;;;7.82;2.40;;;9.90;99.90;;;;;;4996801;28;20437;-78
2022/11/03 03:34:09;;;;;;;8.98;2.30;;;9.90;99.90;;;;;;4980265;28;20484;-78
2022/11/03 03:36:40;;;;;;;10.85;2.38;;;9.90;99.90;;;;;;4972821;28;20050;-78
2022/11/03 03:39:09;;;;;;;11.35;2.70;;;9.90;99.90;;;;;;4956779;28;20043;-78
2022/11/03 03:41:36;;;;;;;8.73;2.60;;;9.90;99.90;;;;;;4987082;28;20031;-78
2022/11/03 03:44:05;;;;;;;10.93;3.05;;;9.90;99.90;;;;;;4988743;28;20038;-78
2022/11/03 03:46:37;;;;;;;9.20;2.45;;;9.90;99.90;;;;;;4979264;28;20043;-78
2022/11/03 03:49:03;;;;;;;7.55;2.50;;;9.90;99.90;;;;;;4994700;28;20070;-78
2022/11/03 03:51:30;;;;;;;7.75;2.50;;;9.90;99.90;;;;;;4988725;28;20456;-78
2022/11/03 03:53:55;;;;;;;10.60;2.70;;;9.90;99.90;;;;;;4972844;28;20101;-78
2022/11/03 03:56:34;;;;;;;10.70;3.13;;;9.80;99.90;;;;;;4990399;28;20090;-78
2022/11/03 03:59:00;;;;;;;8.48;2.25;;;9.80;99.90;;;;;;4974879;28;20046;-78
2022/11/03 04:01:25;;;;;;;9.85;2.72;;;9.80;99.90;;;;;;4988277;28;20035;-78
2022/11/03 04:03:51;;;;;;;12.23;3.05;;;9.80;99.90;;;;;;4972422;28;20035;-78
2022/11/03 04:06:16;;;;;;;9.07;2.97;;;9.80;99.90;;;;;;4956332;28;20081;-78
2022/11/03 04:08:42;;;;;;;13.63;3.58;;;9.90;99.90;;;;;;4955151;28;20066;-78
2022/11/03 04:22:16;;;;;;;8.50;2.50;;;9.90;99.90;;;;;;4983498;28;20077;-78
2022/11/03 04:24:45;;;;;;;9.73;2.42;;;9.90;99.90;;;;;;5000749;28;20041;-78
2022/11/03 04:27:35;;;;;;;9.40;2.83;;;9.90;99.90;;;;;;4951066;28;20118;-78
2022/11/03 04:30:08;;;;;;;7.32;2.63;;;9.90;99.90;;;;;;4984887;28;20065;-78
2022/11/03 04:32:34;;;;;;;10.80;2.95;;;9.90;99.90;;;;;;4977798;28;20083;-78
2022/11/03 04:35:00;;;;;;;9.20;2.67;;;9.90;99.90;;;;;;4987746;28;20060;-78
2022/11/03 04:37:29;;;;;;;9.07;2.85;;;10.00;99.90;;;;;;4969565;28;20536;-78
2022/11/03 04:40:01;;;;;;;13.20;3.22;;;10.00;99.90;;;;;;4950115;28;20038;-78
2022/11/03 04:42:31;;;;;;;9.67;2.67;;;10.10;99.90;;;;;;4975469;28;20038;-78
2022/11/03 04:44:59;;;;;;;11.30;2.95;;;10.10;99.90;;;;;;4966235;28;20042;-78
2022/11/03 04:47:25;;;;;;;7.90;2.58;;;10.10;99.90;;;;;;4982776;28;20120;-79
2022/11/03 04:49:51;;;;;;;9.07;2.70;;;10.20;99.90;;;;;;4951102;28;20045;-78
2022/11/03 04:52:20;;;;;;;10.60;2.63;;;10.20;99.90;;;;;;4969663;28;20050;-78
2022/11/03 04:54:48;;;;;;;8.95;2.60;;;10.20;99.90;;;;;;4959750;28;20085;-79
2022/11/03 04:57:15;;;;;;;8.30;2.70;;;10.20;99.90;;;;;;4941206;28;20305;-79
2022/11/03 04:59:43;;;;;;;7.57;2.83;;;10.20;99.90;;;;;;4983300;28;20469;-78
2022/11/03 05:02:12;;;;;;;12.63;2.95;;;10.20;99.90;;;;;;4990655;28;20059;-78
2022/11/03 05:04:38;;;;;;;9.88;2.92;;;10.30;99.90;;;;;;4956504;28;20034;-78
2022/11/03 05:07:15;;;;;;;8.35;2.47;;;10.30;99.90;;;;;;4958693;28;20539;-78
2022/11/03 05:09:41;;;;;;;8.93;2.95;;;10.30;99.90;;;;;;4974920;28;20046;-78
2022/11/03 05:12:08;;;;;;;6.90;2.13;;;10.40;99.90;;;;;;4973682;28;20485;-78
2022/11/03 05:14:35;;;;;;;9.70;2.83;;;10.30;99.90;;;;;;4948674;28;20404;-78
2022/11/03 05:17:02;;;;;;;9.85;2.78;;;10.30;99.90;;;;;;4964929;28;20039;-78
2022/11/03 05:19:32;;;;;;;8.82;2.63;;;10.30;99.90;;;;;;4939950;28;20489;-79
2022/11/03 05:22:00;;;;;;;6.75;2.65;;;10.30;99.90;;;;;;4971699;28;20050;-78
2022/11/03 05:24:26;;;;;;;8.70;2.83;;;10.30;99.90;;;;;;4955224;28;20506;-78
2022/11/03 05:26:54;;;;;;;7.30;2.25;;;10.20;99.90;;;;;;5040214;22;20054;-80
2022/11/03 05:29:27;;;;;;;13.13;2.72;;;10.20;99.90;;;;;;4989377;28;20034;-79
2022/11/03 05:31:54;;;;;;;7.05;2.40;;;10.20;99.90;;;;;;4976115;28;20039;-80
2022/11/03 05:34:29;;;;;;;9.43;2.60;;;10.20;99.90;;;;;;4977015;28;20042;-80
2022/11/03 05:36:59;;;;;;;6.28;2.08;;;10.20;99.90;;;;;;5004808;28;20069;-80
2022/11/03 05:39:35;;;;;;;9.82;2.78;;;10.20;99.90;;;;;;4997773;28;20558;-79
2022/11/03 05:42:05;;;;;;;7.93;2.40;;;10.20;99.90;;;;;;4988452;28;20026;-80
2022/11/03 05:44:36;;;;;;;9.45;3.25;;;10.20;99.90;;;;;;4984946;28;20041;-80
2022/11/03 05:47:08;;;;;;;9.32;2.72;;;10.20;99.90;;;;;;4985828;28;20072;-80
2022/11/03 05:49:33;;;;;;;8.02;2.03;;;10.20;99.90;;;;;;4997981;28;20052;-80
2022/11/03 05:51:59;;;;;;;9.65;2.83;;;10.10;99.90;;;;;;5014116;28;20034;-80
2022/11/03 05:54:28;;;;;;;9.38;3.00;;;10.10;99.90;;;;;;4985086;28;20163;-80
2022/11/03 05:56:55;;;;;;;11.13;2.60;;;10.10;99.90;;;;;;5009380;28;20092;-80
2022/11/03 05:59:26;;;;;;;7.40;2.42;;;10.10;99.90;;;;;;4988879;28;20053;-80
2022/11/03 06:01:53;;;;;;;9.05;3.40;;;10.10;99.90;;;;;;5004039;28;20049;-80
2022/11/03 06:04:28;;;;;;;9.60;2.70;;;10.10;99.90;;;;;;5011243;28;20030;-79
2022/11/03 06:07:00;;;;;;;9.50;2.70;;;10.10;99.90;;;;;;4995128;28;20133;-79
2022/11/03 06:09:26;;;;;;;9.48;2.75;;;10.10;99.90;;;;;;4987631;28;20052;-80
2022/11/03 06:11:55;;;;;;;11.52;2.88;;;10.10;99.90;;;;;;4989159;28;20034;-79
2022/11/03 06:14:25;;;;;;;8.60;2.78;;;10.10;99.90;;;;;;4983387;28;20053;-78
2022/11/03 06:17:06;;;;;;;8.30;2.50;;;10.10;99.90;;;;;;4982992;28;20349;-78
2022/11/03 06:19:39;;;;;;;14.18;3.28;;;10.10;99.90;;;;;;5011212;28;20293;-76
2022/11/03 06:22:21;;;;;;;8.70;2.65;;;10.10;99.90;;;;;;5016346;28;20029;-78
2022/11/03 06:24:47;;;;;;;6.60;2.17;;;10.10;99.90;;;;;;4991293;28;20037;-79
2022/11/03 06:27:20;;;;;;;9.05;2.40;;;10.10;99.90;;;;;;4991387;28;20153;-78
2022/11/03 06:29:50;;;;;;;7.05;2.30;;;10.10;99.90;;;;;;4982253;28;20045;-77
2022/11/03 06:32:17;;;;;;;10.35;2.90;;;10.10;99.90;;;;;;4984835;28;20404;-77
2022/11/03 06:34:46;;;;;;;8.88;2.60;;;10.10;99.90;;;;;;5021565;28;20488;-77
2022/11/03 06:37:25;;;;;;;9.52;2.72;;;10.10;99.90;;;;;;5013042;28;20121;-77
2022/11/03 06:39:58;;;;;;;10.15;2.53;;;10.10;99.90;;;;;;5018774;28;20121;-77
2022/11/03 06:42:25;;;;;;;10.80;2.45;;;10.10;99.90;;;;;;5000396;28;20041;-78
2022/11/03 06:44:51;;;;;;;10.10;2.78;;;10.10;99.90;;;;;;5017339;28;20042;-78
2022/11/03 06:47:23;;;;;;;9.50;2.35;;;10.10;99.90;;;;;;5007751;28;20053;-77
2022/11/03 06:49:51;;;;;;;8.20;2.70;;;10.20;99.90;;;;;;4993378;28;20038;-77
2022/11/03 06:52:48;;;;;;;7.07;2.38;;;10.20;99.90;;;;;;5013851;28;20034;-79
2022/11/03 06:55:28;;;;;;;9.68;2.70;;;10.30;99.90;;;;;;5008953;28;20500;-79
2022/11/03 06:57:59;;;;;;;6.45;2.60;;;10.20;99.90;;;;;;5015305;28;20047;-79
2022/11/03 07:00:28;;;;;;;8.32;2.47;;;10.20;99.90;;;;;;4999766;28;20038;-77
2022/11/03 07:03:09;;;;;;;6.32;2.65;;;10.30;99.90;;;;;;5017679;28;20042;-77
2022/11/03 07:05:36;;;;;;;9.60;2.60;;;10.30;99.90;;;;;;4972272;28;20181;-76
2022/11/03 07:08:13;;;;;;;7.60;2.42;;;10.40;99.90;;;;;;5009086;28;20056;-77
2022/11/03 07:10:38;;;;;;;10.05;2.55;;;10.40;99.90;;;;;;5013570;28;20172;-76
2022/11/03 07:13:13;;;;;;;7.57;2.17;;;10.40;99.90;;;;;;4984572;28;20461;-76
2022/11/03 07:15:40;;;;;;;9.02;2.47;;;10.50;99.90;;;;;;5006851;28;20121;-78
2022/11/03 07:18:37;;;;;;;7.38;2.72;;;10.60;99.90;;;;;;4982522;28;20065;-79
2022/11/03 07:21:18;;;;;;;11.65;2.65;;;10.60;99.90;;;;;;4994939;28;20409;-80
2022/11/03 07:23:44;;;;;;;7.32;2.60;;;10.60;99.90;;;;;;4980291;28;20041;-80
2022/11/03 07:26:10;;;;;;;8.55;2.65;;;10.60;99.90;;;;;;4997891;28;20527;-78
2022/11/03 07:28:37;;;;;;;7.65;2.50;;;10.60;99.90;;;;;;5015992;28;20512;-79
2022/11/03 07:31:14;;;;;;;6.93;2.97;;;10.70;99.90;;;;;;4986791;28;20045;-78
2022/11/03 07:33:40;;;;;;;6.95;2.60;;;10.70;99.90;;;;;;4987573;28;20042;-79
2022/11/03 07:36:08;;;;;;;8.50;2.47;;;10.70;99.90;;;;;;5011929;28;20061;-78
2022/11/03 07:38:34;;;;;;;11.93;2.50;;;10.80;99.90;;;;;;5023752;28;20039;-80
2022/11/03 07:41:00;;;;;;;8.35;2.33;;;10.80;99.90;;;;;;5017203;28;20049;-78
2022/11/03 07:43:31;;;;;;;9.13;2.53;;;10.80;99.90;;;;;;5028362;28;20076;-78
2022/11/03 07:46:00;;;;;;;9.65;2.58;;;10.90;99.90;;;;;;5028309;28;20045;-78
2022/11/03 07:48:44;;;;;;;12.65;2.85;;;10.90;99.90;;;;;;5015960;28;20082;-78
2022/11/03 07:51:24;;;;;;;7.47;2.80;;;10.90;99.90;;;;;;5009453;28;20042;-78
2022/11/03 07:53:55;;;;;;;11.27;3.10;;;11.00;99.90;;;;;;4995671;28;20133;-78
2022/11/03 07:56:27;;;;;;;10.10;2.67;;;11.00;99.90;;;;;;5016779;28;20068;-79
2022/11/03 07:59:07;;;;;;;9.52;2.42;;;11.10;99.90;;;;;;5022431;28;20042;-78
2022/11/03 08:01:38;;;;;;;6.88;2.95;;;11.10;99.90;;;;;;5027973;28;20034;-79
2022/11/03 08:04:07;;;;;;;8.43;2.72;;;11.10;99.90;;;;;;5028228;28;20073;-78
2022/11/03 08:06:33;;;;;;;9.23;2.83;;;11.20;99.90;;;;;;4982957;28;20518;-78
2022/11/03 08:08:58;;;;;;;9.88;2.65;;;11.30;99.90;;;;;;5015269;28;20488;-79
2022/11/03 08:11:24;;;;;;;9.38;2.63;;;11.30;99.90;;;;;;4999725;28;20045;-79
2022/11/03 08:13:51;;;;;;;8.70;2.55;;;11.40;99.90;;;;;;4975589;28;20046;-79
2022/11/03 08:16:17;;;;;;;10.52;2.70;;;11.40;99.90;;;;;;5008005;28;20540;-78
2022/11/03 08:18:43;;;;;;;9.88;2.40;;;11.50;99.90;;;;;;5007711;28;20034;-79
2022/11/03 08:21:08;;;;;;;10.45;2.95;;;11.50;99.90;;;;;;5014178;28;20554;-78
2022/11/03 08:23:34;;;;;;;8.77;3.00;;;11.50;99.90;;;;;;4988028;28;20048;-78
2022/11/03 08:26:00;;;;;;;8.52;2.92;;;11.60;99.90;;;;;;5010924;28;20096;-80
2022/11/03 08:28:26;;;;;;;8.10;3.25;;;11.70;99.90;;;;;;4994599;28;20049;-79
2022/11/03 08:30:51;;;;;;;9.82;2.80;;;11.70;99.90;;;;;;5027572;28;20057;-78
2022/11/03 08:33:18;;;;;;;7.82;2.60;;;11.80;99.90;;;;;;5027525;28;20049;-78
2022/11/03 08:35:43;;;;;;;7.28;2.65;;;11.80;99.90;;;;;;4998173;28;20426;-78
2022/11/03 08:38:09;;;;;;;8.15;2.33;;;11.90;99.90;;;;;;5024836;28;20128;-80
2022/11/03 08:40:35;;;;;;;7.63;2.38;;;11.90;99.90;;;;;;5010959;28;20034;-78
2022/11/03 08:43:01;;;;;;;6.72;2.20;;;12.00;99.90;;;;;;5010983;28;20038;-78
2022/11/03 08:45:28;;;;;;;8.68;2.70;;;12.00;99.90;;;;;;5018040;28;20038;-78
2022/11/03 08:47:54;;;;;;;10.68;2.60;;;12.00;99.90;;;;;;5022641;28;20093;-79
2022/11/03 08:50:20;;;;;;;8.52;2.60;;;12.10;99.90;;;;;;5027308;28;20042;-79
2022/11/03 08:52:46;;;;;;;6.95;2.28;;;12.10;99.90;;;;;;5027253;28;20045;-78
2022/11/03 08:55:11;;;;;;;8.25;2.63;;;12.10;99.90;;;;;;5010678;28;20041;-78
2022/11/03 08:57:37;;;;;;;12.35;3.50;;;12.20;99.90;;;;;;5016892;28;20086;-78
2022/11/03 09:00:04;;;;;;;7.28;2.90;;;12.20;99.90;;;;;;5023816;28;20045;-78
2022/11/03 09:02:30;;;;;;;7.07;2.60;;;12.20;99.90;;;;;;5027177;28;20044;-78
2022/11/03 09:04:56;;;;;;;9.07;2.67;;;12.30;99.90;;;;;;5018317;28;20396;-78
2022/11/03 09:07:22;;;;;;;8.90;2.33;;;12.30;99.90;;;;;;5007841;28;20449;-78
2022/11/03 09:09:47;;;;;;;5.85;2.65;;;12.40;99.90;;;;;;5016334;28;20046;-79
2022/11/03 09:12:13;;;;;;;9.25;2.65;;;12.40;99.90;;;;;;5019293;28;20042;-79
2022/11/03 09:14:39;;;;;;;7.90;2.47;;;12.50;99.90;;;;;;5011462;28;20039;-78
2022/11/03 09:17:04;;;;;;;10.10;3.35;;;12.60;99.90;;;;;;4977995;28;20045;-78
2022/11/03 09:19:30;;;;;;;14.25;2.85;;;12.60;99.90;;;;;;5022763;28;20030;-78
2022/11/03 09:21:56;;;;;;;7.30;2.80;;;12.70;99.90;;;;;;5014872;28;20038;-79
2022/11/03 09:24:21;;;;;;;11.65;2.67;;;12.80;99.90;;;;;;5022552;28;20053;-79
2022/11/03 09:26:47;;;;;;;8.07;2.65;;;12.90;99.90;;;;;;4989806;28;20383;-80
2022/11/03 09:29:13;;;;;;;11.18;2.50;;;13.00;99.90;;;;;;5014317;28;20041;-79
2022/11/03 09:31:38;;;;;;;7.40;2.80;;;12.90;99.90;;;;;;4998013;28;20045;-78
2022/11/03 09:34:04;;;;;;;9.32;3.00;;;13.00;99.90;;;;;;5009847;28;20033;-79
2022/11/03 09:36:30;;;;;;;11.10;2.60;;;13.10;99.90;;;;;;5023022;28;20045;-80
2022/11/03 09:38:55;;;;;;;7.15;2.38;;;13.10;99.90;;;;;;5004229;28;20088;-80
2022/11/03 09:41:21;;;;;;;9.27;2.78;;;13.10;99.90;;;;;;5006221;28;20482;-78
2022/11/03 09:43:47;;;;;;;8.05;3.00;;;13.20;99.90;;;;;;5030960;28;20431;-79
2022/11/03 09:46:15;;;;;;;10.07;2.55;;;13.20;99.90;;;;;;5030477;28;20065;-79
2022/11/03 09:48:41;;;;;;;10.95;3.65;;;13.20;99.90;;;;;;5025379;28;20439;-79
2022/11/03 09:51:13;;;;;;;7.97;2.80;;;13.20;99.90;;;;;;5005828;28;20033;-79
2022/11/03 09:53:39;;;;;;;7.85;2.92;;;13.30;99.90;;;;;;5013916;28;20072;-78
2022/11/03 09:56:05;;;;;;;13.13;2.90;;;13.30;99.90;;;;;;5030345;28;20038;-79
2022/11/03 09:58:32;;;;;;;8.43;2.53;;;13.40;99.90;;;;;;4997220;28;20042;-78
2022/11/03 10:00:59;;;;;;;8.60;2.45;;;13.50;99.90;;;;;;5013966;28;20088;-78
2022/11/03 10:03:25;;;;;;;8.88;2.78;;;13.60;99.90;;;;;;4989596;28;20061;-78
2022/11/03 10:05:51;;;;;;;6.40;2.35;;;13.80;99.90;;;;;;5025719;28;20500;-79
2022/11/03 10:08:25;;;;;;;7.60;2.83;;;13.90;99.90;;;;;;5029899;28;20075;-80
2022/11/03 10:10:52;;;;;;;10.40;2.33;;;14.10;99.90;;;;;;5030310;28;20228;-79
2022/11/03 10:13:32;;;;;;;7.18;2.30;;;14.20;99.90;;;;;;5027126;28;20038;-78
2022/11/03 10:16:03;;;;;;;6.05;2.10;;;14.20;99.90;;;;;;5018368;28;20397;-78
2022/11/03 10:18:30;;;;;;;9.50;2.72;;;14.20;99.90;;;;;;5010303;28;20042;-78
2022/11/03 10:21:00;;;;;;;8.73;2.40;;;14.20;99.90;;;;;;4977163;28;20077;-78
2022/11/03 10:23:26;;;;;;;8.43;2.50;;;14.20;99.90;;;;;;5010560;28;20524;-78
2022/11/03 10:25:56;;;;;;;6.53;2.30;;;14.20;99.90;;;;;;4977415;28;20113;-78
2022/11/03 10:28:28;;;;;;;7.75;2.28;;;14.20;99.90;;;;;;4992646;28;20081;-78
2022/11/03 10:30:53;;;;;;;9.50;2.33;;;14.20;99.90;;;;;;5018457;28;20568;-78
2022/11/03 10:33:31;;;;;;;7.32;2.50;;;14.20;99.90;;;;;;4993586;28;20133;-80
2022/11/03 10:36:17;;;;;;;6.97;2.17;;;14.20;99.90;;;;;;4993952;28;20592;-78
2022/11/03 10:38:43;;;;;;;8.63;3.20;;;14.20;99.90;;;;;;4986225;28;20058;-78
2022/11/03 10:41:10;;;;;;;7.60;2.10;;;14.10;99.90;;;;;;5010177;28;20046;-79
2022/11/03 10:43:40;;;;;;;6.50;2.35;;;14.10;99.90;;;;;;5005577;28;20057;-79
2022/11/03 10:46:10;;;;;;;6.68;2.28;;;14.20;99.90;;;;;;4996171;28;20077;-79
2022/11/03 10:48:36;;;;;;;7.65;2.05;;;14.30;99.90;;;;;;4993191;28;20504;-78
2022/11/03 10:51:02;;;;;;;4.80;1.83;;;14.50;99.90;;;;;;5009712;28;20078;-79
2022/11/03 10:53:27;;;;;;;5.75;2.10;;;14.60;99.90;;;;;;4995607;28;20032;-81
2022/11/03 10:55:54;;;;;;;8.07;2.67;;;14.80;99.90;;;;;;4981496;28;20034;-78
2022/11/03 10:58:20;;;;;;;6.68;2.03;;;14.90;99.90;;;;;;5009169;28;20050;-79
2022/11/03 11:00:46;;;;;;;6.80;1.88;;;15.00;99.90;;;;;;5009791;28;20034;-79
2022/11/03 11:03:12;;;;;;;7.15;2.05;;;15.00;99.90;;;;;;4976968;28;20054;-78
2022/11/03 11:05:44;;;;;;;6.80;2.15;;;15.10;99.90;;;;;;5009350;28;20104;-78
2022/11/03 11:08:12;;;;;;;6.78;2.03;;;15.10;99.90;;;;;;4995566;28;20400;-79
2022/11/03 11:10:43;;;;;;;5.90;2.40;;;15.10;99.90;;;;;;5000506;28;20103;-79
2022/11/03 11:13:20;;;;;;;6.78;2.00;;;15.00;99.90;;;;;;4988067;28;20037;-79
2022/11/03 11:16:24;;;;;;;5.45;1.77;;;15.00;99.90;;;;;;4996279;28;20053;-79
2022/11/03 11:18:49;;;;;;;7.63;2.13;;;14.90;99.90;;;;;;4987580;28;20074;-79
2022/11/03 11:21:16;;;;;;;4.32;1.48;;;14.90;99.90;;;;;;5007474;28;20471;-79
2022/11/03 11:23:43;;;;;;;7.07;2.63;;;14.90;99.90;;;;;;5006495;28;20455;-78
2022/11/03 11:26:09;;;;;;;8.98;2.45;;;14.90;99.90;;;;;;5010615;23;20101;-78
2022/11/03 11:28:46;;;;;;;9.55;2.03;;;14.80;99.90;;;;;;4974536;28;20102;-78
2022/11/03 11:31:21;;;;;;;6.10;1.50;;;14.80;99.90;;;;;;4975436;28;20058;-78
2022/11/03 11:34:22;;;;;;;7.05;2.13;;;14.70;99.90;;;;;;4981618;28;20046;-78
2022/11/03 11:36:59;;;;;;;5.05;1.60;;;14.70;99.90;;;;;;4961037;28;20043;-78
2022/11/03 11:39:43;;;;;;;6.82;1.83;;;14.70;99.90;;;;;;4940424;29;20052;-77
2022/11/03 11:42:23;;;;;;;5.40;1.80;;;14.60;99.90;;;;;;4942687;29;20036;-78
2022/11/03 11:45:21;;;;;;;5.75;1.73;;;14.60;99.90;;;;;;4945391;29;20170;-78
2022/11/03 11:48:11;;;;;;;4.70;1.70;;;14.60;99.90;;;;;;4952848;29;20043;-78
2022/11/03 11:50:47;;;;;;;5.78;1.92;;;14.50;99.90;;;;;;4945585;28;20042;-78
2022/11/03 11:53:40;;;;;;;4.13;1.70;;;14.50;99.90;;;;;;4951619;29;20043;-77
2022/11/03 11:56:20;;;;;;;7.22;2.03;;;14.50;99.90;;;;;;4943478;29;20056;-78
2022/11/03 11:59:01;;;;;;;5.97;1.70;;;14.50;99.90;;;;;;4957888;28;20064;-77
2022/11/03 12:01:36;;;;;;;6.75;2.10;;;14.50;99.90;;;;;;4975558;28;20039;-78
2022/11/03 12:04:34;;;;;;;4.78;1.70;;;14.50;99.90;;;;;;4942596;29;20035;-78
2022/11/03 12:07:04;;;;;;;5.32;1.70;;;14.50;99.90;;;;;;4956942;29;20047;-77
2022/11/03 12:09:42;;;;;;;4.15;1.80;;;14.50;99.90;;;;;;4943405;29;20046;-77
2022/11/03 12:12:32;;;;;;;8.85;1.95;;;14.50;99.90;;;;;;4940383;29;20126;-78
2022/11/03 12:15:02;;;;;;;5.10;1.70;;;14.50;99.90;;;;;;4941801;29;20048;-80
2022/11/03 12:17:28;;;;;;;7.50;1.98;;;14.50;99.90;;;;;;4959059;28;20070;-80
2022/11/03 12:19:55;;;;;;;7.35;2.40;;;14.70;99.90;;;;;;4943073;28;20050;-79
2022/11/03 12:22:53;;;;;;;7.53;2.15;;;14.90;99.90;;;;;;4950782;28;20035;-80
2022/11/03 12:25:39;;;;;;;3.90;1.63;;;15.20;99.90;;;;;;4949934;28;20032;-80
2022/11/03 12:28:08;;;;;;;5.70;2.00;;;15.40;99.90;;;;;;4942692;29;20066;-80
2022/11/03 12:30:38;;;;;;;5.78;1.73;;;15.50;99.90;;;;;;4927517;29;20150;-79
2022/11/03 12:33:18;;;;;;;4.75;1.83;;;15.60;99.90;;;;;;4926012;29;20039;-80
2022/11/03 12:35:47;;;;;;;4.63;1.65;;;15.60;99.90;;;;;;4924515;29;20425;-79
2022/11/03 12:38:15;;;;;;;6.72;1.85;;;15.70;99.90;;;;;;4925728;29;20039;-80
2022/11/03 12:40:47;;;;;;;5.53;1.77;;;15.70;99.90;;;;;;4943127;29;20456;-80
2022/11/03 12:43:15;;;;;;;6.07;1.92;;;15.70;99.90;;;;;;4909988;29;20051;-80
2022/11/03 12:45:49;;;;;;;6.88;1.70;;;15.70;99.90;;;;;;4939948;29;20172;-79
2022/11/03 12:48:23;;;;;;;7.15;1.50;;;15.70;99.90;;;;;;4941603;29;20141;-80
2022/11/03 12:50:58;;;;;;;5.65;1.90;;;15.60;99.90;;;;;;4939656;29;20107;-81
2022/11/03 12:53:24;;;;;;;4.68;1.50;;;15.50;99.90;;;;;;4916996;29;20490;-79
2022/11/03 12:55:53;;;;;;;4.00;2.10;;;15.40;99.90;;;;;;4925166;29;20142;-79
2022/11/03 12:58:31;;;;;;;6.20;1.70;;;15.30;99.90;;;;;;4924490;29;20082;-79
2022/11/03 13:01:11;;;;;;;7.43;2.00;;;15.20;99.90;;;;;;4924756;29;20498;-80
2022/11/03 13:03:49;;;;;;;7.72;1.98;;;15.20;99.90;;;;;;4925056;29;20043;-80
2022/11/03 13:06:37;;;;;;;11.30;2.53;;;15.20;99.90;;;;;;4938950;29;20110;-81
2022/11/03 13:09:09;;;;;;;6.85;1.83;;;15.20;99.90;;;;;;4940660;29;20031;-80
2022/11/03 13:14:59;;;;;;;5.32;2.10;;;15.10;99.90;;;;;;4941693;29;20070;-80
2022/11/03 13:17:28;;;;;;;9.55;2.33;;;15.10;99.90;;;;;;4940430;29;20039;-80
2022/11/03 13:20:03;;;;;;;7.07;2.47;;;15.00;99.90;;;;;;4940452;29;20036;-80
2022/11/03 13:22:35;;;;;;;5.88;1.98;;;15.00;99.90;;;;;;4924643;29;20035;-80